sensor_id;sensor_type;location;lat;lon;timestamp;P1;durP1;ratioP1;P2;durP2;ratioP2
41643;SDS011;44236;48.098;11.582;2023-06-10T00:00:12;4.18;;;2.60;;
41643;SDS011;44236;48.098;11.582;2023-06-10T00:02:40;3.88;;;2.50;;
41643;SDS011;44236;48.098;11.582;2023-06-10T00:05:06;4.65;;;2.53;;
41643;SDS011;44236;48.098;11.582;2023-06-10T00:07:35;4.40;;;2.70;;
41643;SDS011;44236;48.098;11.582;2023-06-10T00:10:04;4.40;;;2.97;;
41643;SDS011;44236;48.098;11.582;2023-06-10T00:12:31;4.60;;;3.08;;
41643;SDS011;44236;48.098;11.582;2023-06-10T00:15:01;4.80;;;3.00;;
41643;SDS011;44236;48.098;11.582;2023-06-10T00:17:28;4.60;;;2.80;;
41643;SDS011;44236;48.098;11.582;2023-06-10T00:19:54;4.63;;;3.30;;
41643;SDS011;44236;48.098;11.582;2023-06-10T00:22:20;5.03;;;2.90;;
41643;SDS011;44236;48.098;11.582;2023-06-10T00:24:47;4.30;;;2.88;;
41643;SDS011;44236;48.098;11.582;2023-06-10T00:27:12;4.53;;;3.10;;
41643;SDS011;44236;48.098;11.582;2023-06-10T00:29:38;4.72;;;2.88;;
41643;SDS011;44236;48.098;11.582;2023-06-10T00:32:04;4.30;;;2.78;;
41643;SDS011;44236;48.098;11.582;2023-06-10T00:34:30;4.20;;;2.80;;
41643;SDS011;44236;48.098;11.582;2023-06-10T00:36:57;4.30;;;2.90;;
41643;SDS011;44236;48.098;11.582;2023-06-10T00:39:23;4.75;;;3.20;;
41643;SDS011;44236;48.098;11.582;2023-06-10T00:41:48;4.20;;;3.00;;
41643;SDS011;44236;48.098;11.582;2023-06-10T00:44:15;3.75;;;2.60;;
41643;SDS011;44236;48.098;11.582;2023-06-10T00:46:41;5.47;;;3.00;;
41643;SDS011;44236;48.098;11.582;2023-06-10T00:49:07;4.60;;;2.95;;
41643;SDS011;44236;48.098;11.582;2023-06-10T00:51:33;4.55;;;3.10;;
41643;SDS011;44236;48.098;11.582;2023-06-10T00:54:00;4.90;;;3.13;;
41643;SDS011;44236;48.098;11.582;2023-06-10T00:58:55;5.00;;;3.10;;
41643;SDS011;44236;48.098;11.582;2023-06-10T01:01:20;4.88;;;3.30;;
41643;SDS011;44236;48.098;11.582;2023-06-10T01:03:46;4.40;;;2.78;;
41643;SDS011;44236;48.098;11.582;2023-06-10T01:11:14;4.93;;;3.10;;
41643;SDS011;44236;48.098;11.582;2023-06-10T01:13:49;3.72;;;2.53;;
41643;SDS011;44236;48.098;11.582;2023-06-10T01:16:17;4.70;;;2.97;;
41643;SDS011;44236;48.098;11.582;2023-06-10T01:18:46;4.55;;;2.92;;
41643;SDS011;44236;48.098;11.582;2023-06-10T01:21:13;4.72;;;3.13;;
41643;SDS011;44236;48.098;11.582;2023-06-10T01:23:45;4.57;;;3.00;;
41643;SDS011;44236;48.098;11.582;2023-06-10T01:26:11;3.95;;;2.65;;
41643;SDS011;44236;48.098;11.582;2023-06-10T01:28:39;4.75;;;2.95;;
41643;SDS011;44236;48.098;11.582;2023-06-10T01:31:16;4.55;;;3.00;;
41643;SDS011;44236;48.098;11.582;2023-06-10T01:33:50;3.90;;;2.65;;
41643;SDS011;44236;48.098;11.582;2023-06-10T01:36:17;4.53;;;2.72;;
41643;SDS011;44236;48.098;11.582;2023-06-10T01:38:46;4.85;;;2.92;;
41643;SDS011;44236;48.098;11.582;2023-06-10T01:41:13;3.92;;;2.45;;
41643;SDS011;44236;48.098;11.582;2023-06-10T01:43:40;5.40;;;2.95;;
41643;SDS011;44236;48.098;11.582;2023-06-10T01:46:08;4.30;;;2.88;;
41643;SDS011;44236;48.098;11.582;2023-06-10T01:48:34;4.10;;;3.10;;
41643;SDS011;44236;48.098;11.582;2023-06-10T01:51:00;3.90;;;2.83;;
41643;SDS011;44236;48.098;11.582;2023-06-10T01:53:26;4.40;;;2.83;;
41643;SDS011;44236;48.098;11.582;2023-06-10T01:55:51;4.95;;;3.38;;
41643;SDS011;44236;48.098;11.582;2023-06-10T01:58:17;5.47;;;3.08;;
41643;SDS011;44236;48.098;11.582;2023-06-10T02:00:42;5.18;;;3.03;;
41643;SDS011;44236;48.098;11.582;2023-06-10T02:03:08;4.35;;;3.10;;
41643;SDS011;44236;48.098;11.582;2023-06-10T02:05:33;4.38;;;3.10;;
41643;SDS011;44236;48.098;11.582;2023-06-10T02:07:59;4.55;;;3.25;;
41643;SDS011;44236;48.098;11.582;2023-06-10T02:10:25;5.88;;;3.65;;
41643;SDS011;44236;48.098;11.582;2023-06-10T02:12:51;4.93;;;2.88;;
41643;SDS011;44236;48.098;11.582;2023-06-10T02:15:17;4.60;;;2.80;;
41643;SDS011;44236;48.098;11.582;2023-06-10T02:17:42;5.72;;;3.28;;
41643;SDS011;44236;48.098;11.582;2023-06-10T02:20:09;4.50;;;3.28;;
41643;SDS011;44236;48.098;11.582;2023-06-10T02:22:35;4.53;;;3.15;;
41643;SDS011;44236;48.098;11.582;2023-06-10T02:25:05;5.22;;;3.05;;
41643;SDS011;44236;48.098;11.582;2023-06-10T02:27:30;4.97;;;3.20;;
41643;SDS011;44236;48.098;11.582;2023-06-10T02:29:57;3.80;;;2.47;;
41643;SDS011;44236;48.098;11.582;2023-06-10T02:32:22;4.60;;;3.08;;
41643;SDS011;44236;48.098;11.582;2023-06-10T02:34:48;4.60;;;3.10;;
41643;SDS011;44236;48.098;11.582;2023-06-10T02:37:14;4.47;;;2.95;;
41643;SDS011;44236;48.098;11.582;2023-06-10T02:39:40;4.65;;;3.10;;
41643;SDS011;44236;48.098;11.582;2023-06-10T02:42:06;5.78;;;3.72;;
41643;SDS011;44236;48.098;11.582;2023-06-10T02:44:32;4.35;;;2.63;;
41643;SDS011;44236;48.098;11.582;2023-06-10T02:46:58;4.40;;;2.92;;
41643;SDS011;44236;48.098;11.582;2023-06-10T02:49:23;4.03;;;2.70;;
41643;SDS011;44236;48.098;11.582;2023-06-10T02:51:50;4.20;;;2.83;;
41643;SDS011;44236;48.098;11.582;2023-06-10T02:54:18;3.90;;;2.67;;
41643;SDS011;44236;48.098;11.582;2023-06-10T02:56:44;4.55;;;3.08;;
41643;SDS011;44236;48.098;11.582;2023-06-10T02:59:10;4.22;;;2.92;;
41643;SDS011;44236;48.098;11.582;2023-06-10T03:01:36;5.22;;;3.63;;
41643;SDS011;44236;48.098;11.582;2023-06-10T03:04:05;4.90;;;3.25;;
41643;SDS011;44236;48.098;11.582;2023-06-10T03:09:00;4.20;;;3.03;;
41643;SDS011;44236;48.098;11.582;2023-06-10T03:11:26;4.15;;;2.97;;
41643;SDS011;44236;48.098;11.582;2023-06-10T03:13:52;4.38;;;3.00;;
41643;SDS011;44236;48.098;11.582;2023-06-10T03:16:20;4.22;;;2.72;;
41643;SDS011;44236;48.098;11.582;2023-06-10T03:18:46;4.78;;;3.00;;
41643;SDS011;44236;48.098;11.582;2023-06-10T03:21:12;5.20;;;3.60;;
41643;SDS011;44236;48.098;11.582;2023-06-10T03:23:37;4.35;;;3.20;;
41643;SDS011;44236;48.098;11.582;2023-06-10T03:26:04;4.60;;;3.28;;
41643;SDS011;44236;48.098;11.582;2023-06-10T03:28:32;4.60;;;3.35;;
41643;SDS011;44236;48.098;11.582;2023-06-10T03:30:58;4.65;;;3.03;;
41643;SDS011;44236;48.098;11.582;2023-06-10T03:33:24;4.80;;;2.97;;
41643;SDS011;44236;48.098;11.582;2023-06-10T03:35:49;4.68;;;2.97;;
41643;SDS011;44236;48.098;11.582;2023-06-10T03:38:16;4.20;;;3.00;;
41643;SDS011;44236;48.098;11.582;2023-06-10T03:40:41;4.20;;;2.90;;
41643;SDS011;44236;48.098;11.582;2023-06-10T03:43:07;4.15;;;2.83;;
41643;SDS011;44236;48.098;11.582;2023-06-10T03:45:32;4.43;;;3.10;;
41643;SDS011;44236;48.098;11.582;2023-06-10T03:47:58;4.45;;;3.17;;
41643;SDS011;44236;48.098;11.582;2023-06-10T03:50:24;4.03;;;2.83;;
41643;SDS011;44236;48.098;11.582;2023-06-10T03:52:50;3.58;;;2.53;;
41643;SDS011;44236;48.098;11.582;2023-06-10T03:55:16;5.43;;;3.17;;
41643;SDS011;44236;48.098;11.582;2023-06-10T03:57:42;5.50;;;2.97;;
41643;SDS011;44236;48.098;11.582;2023-06-10T04:00:08;4.18;;;3.25;;
41643;SDS011;44236;48.098;11.582;2023-06-10T04:02:37;4.35;;;2.92;;
41643;SDS011;44236;48.098;11.582;2023-06-10T04:05:11;5.30;;;2.70;;
41643;SDS011;44236;48.098;11.582;2023-06-10T04:07:37;4.30;;;2.88;;
41643;SDS011;44236;48.098;11.582;2023-06-10T04:10:06;4.13;;;2.80;;
41643;SDS011;44236;48.098;11.582;2023-06-10T04:12:32;4.97;;;3.42;;
41643;SDS011;44236;48.098;11.582;2023-06-10T04:14:57;4.93;;;3.28;;
41643;SDS011;44236;48.098;11.582;2023-06-10T04:17:23;4.78;;;3.13;;
41643;SDS011;44236;48.098;11.582;2023-06-10T04:19:49;4.95;;;2.90;;
41643;SDS011;44236;48.098;11.582;2023-06-10T04:22:15;4.03;;;2.78;;
41643;SDS011;44236;48.098;11.582;2023-06-10T04:24:42;4.72;;;3.03;;
41643;SDS011;44236;48.098;11.582;2023-06-10T04:27:08;4.60;;;2.78;;
41643;SDS011;44236;48.098;11.582;2023-06-10T04:29:35;4.97;;;3.13;;
41643;SDS011;44236;48.098;11.582;2023-06-10T04:32:01;4.10;;;2.70;;
41643;SDS011;44236;48.098;11.582;2023-06-10T04:34:27;4.93;;;3.40;;
41643;SDS011;44236;48.098;11.582;2023-06-10T04:36:53;4.53;;;2.88;;
41643;SDS011;44236;48.098;11.582;2023-06-10T04:39:19;4.28;;;2.90;;
41643;SDS011;44236;48.098;11.582;2023-06-10T04:41:45;4.32;;;2.92;;
41643;SDS011;44236;48.098;11.582;2023-06-10T04:44:11;3.97;;;2.78;;
41643;SDS011;44236;48.098;11.582;2023-06-10T04:46:37;4.13;;;2.92;;
41643;SDS011;44236;48.098;11.582;2023-06-10T04:49:03;4.47;;;3.10;;
41643;SDS011;44236;48.098;11.582;2023-06-10T04:51:29;4.32;;;2.92;;
41643;SDS011;44236;48.098;11.582;2023-06-10T04:53:56;4.60;;;3.10;;
41643;SDS011;44236;48.098;11.582;2023-06-10T04:56:22;4.55;;;3.42;;
41643;SDS011;44236;48.098;11.582;2023-06-10T04:58:48;4.28;;;3.00;;
41643;SDS011;44236;48.098;11.582;2023-06-10T05:01:14;4.53;;;3.08;;
41643;SDS011;44236;48.098;11.582;2023-06-10T05:03:40;3.47;;;2.47;;
41643;SDS011;44236;48.098;11.582;2023-06-10T05:06:05;4.30;;;2.53;;
41643;SDS011;44236;48.098;11.582;2023-06-10T05:08:31;4.18;;;2.85;;
41643;SDS011;44236;48.098;11.582;2023-06-10T05:10:57;4.95;;;3.25;;
41643;SDS011;44236;48.098;11.582;2023-06-10T05:13:23;3.72;;;2.40;;
41643;SDS011;44236;48.098;11.582;2023-06-10T05:15:48;4.38;;;2.80;;
41643;SDS011;44236;48.098;11.582;2023-06-10T05:18:14;4.75;;;2.97;;
41643;SDS011;44236;48.098;11.582;2023-06-10T05:20:40;4.65;;;2.92;;
41643;SDS011;44236;48.098;11.582;2023-06-10T05:23:05;4.85;;;3.05;;
41643;SDS011;44236;48.098;11.582;2023-06-10T05:25:32;3.83;;;2.40;;
41643;SDS011;44236;48.098;11.582;2023-06-10T05:27:58;4.32;;;3.40;;
41643;SDS011;44236;48.098;11.582;2023-06-10T05:30:24;4.28;;;2.85;;
41643;SDS011;44236;48.098;11.582;2023-06-10T05:32:51;4.07;;;2.50;;
41643;SDS011;44236;48.098;11.582;2023-06-10T05:35:17;4.90;;;2.67;;
41643;SDS011;44236;48.098;11.582;2023-06-10T05:37:43;3.92;;;2.67;;
41643;SDS011;44236;48.098;11.582;2023-06-10T05:40:10;4.32;;;3.00;;
41643;SDS011;44236;48.098;11.582;2023-06-10T05:42:36;3.97;;;2.85;;
41643;SDS011;44236;48.098;11.582;2023-06-10T05:45:02;5.22;;;2.53;;
41643;SDS011;44236;48.098;11.582;2023-06-10T05:47:28;5.15;;;2.47;;
41643;SDS011;44236;48.098;11.582;2023-06-10T05:49:53;5.35;;;2.90;;
41643;SDS011;44236;48.098;11.582;2023-06-10T05:52:19;4.22;;;2.50;;
41643;SDS011;44236;48.098;11.582;2023-06-10T05:54:46;3.38;;;2.35;;
41643;SDS011;44236;48.098;11.582;2023-06-10T05:57:11;4.50;;;2.60;;
41643;SDS011;44236;48.098;11.582;2023-06-10T05:59:37;4.90;;;2.88;;
41643;SDS011;44236;48.098;11.582;2023-06-10T06:02:02;4.32;;;3.10;;
41643;SDS011;44236;48.098;11.582;2023-06-10T06:04:28;4.72;;;2.38;;
41643;SDS011;44236;48.098;11.582;2023-06-10T06:06:54;4.13;;;2.55;;
41643;SDS011;44236;48.098;11.582;2023-06-10T06:09:20;3.55;;;2.28;;
41643;SDS011;44236;48.098;11.582;2023-06-10T06:11:45;3.85;;;2.38;;
41643;SDS011;44236;48.098;11.582;2023-06-10T06:14:11;4.43;;;2.80;;
41643;SDS011;44236;48.098;11.582;2023-06-10T06:16:36;4.07;;;2.28;;
41643;SDS011;44236;48.098;11.582;2023-06-10T06:19:02;3.80;;;2.60;;
41643;SDS011;44236;48.098;11.582;2023-06-10T06:21:28;3.03;;;1.88;;
41643;SDS011;44236;48.098;11.582;2023-06-10T06:23:53;4.32;;;2.70;;
41643;SDS011;44236;48.098;11.582;2023-06-10T06:26:19;4.05;;;2.40;;
41643;SDS011;44236;48.098;11.582;2023-06-10T06:28:45;3.50;;;2.47;;
41643;SDS011;44236;48.098;11.582;2023-06-10T06:31:11;3.65;;;2.15;;
41643;SDS011;44236;48.098;11.582;2023-06-10T06:33:36;3.88;;;2.35;;
41643;SDS011;44236;48.098;11.582;2023-06-10T06:36:02;3.83;;;2.58;;
41643;SDS011;44236;48.098;11.582;2023-06-10T06:38:28;4.57;;;2.40;;
41643;SDS011;44236;48.098;11.582;2023-06-10T06:40:53;4.15;;;3.00;;
41643;SDS011;44236;48.098;11.582;2023-06-10T06:43:19;4.10;;;2.55;;
41643;SDS011;44236;48.098;11.582;2023-06-10T06:45:45;3.70;;;2.50;;
41643;SDS011;44236;48.098;11.582;2023-06-10T06:48:11;3.45;;;2.05;;
41643;SDS011;44236;48.098;11.582;2023-06-10T06:50:37;3.53;;;2.15;;
41643;SDS011;44236;48.098;11.582;2023-06-10T06:53:03;3.17;;;1.92;;
41643;SDS011;44236;48.098;11.582;2023-06-10T06:55:29;3.55;;;2.20;;
41643;SDS011;44236;48.098;11.582;2023-06-10T06:57:55;3.03;;;2.10;;
41643;SDS011;44236;48.098;11.582;2023-06-10T07:00:21;3.10;;;1.98;;
41643;SDS011;44236;48.098;11.582;2023-06-10T07:02:47;3.28;;;2.35;;
41643;SDS011;44236;48.098;11.582;2023-06-10T07:05:13;4.05;;;2.40;;
41643;SDS011;44236;48.098;11.582;2023-06-10T07:07:38;3.78;;;2.45;;
41643;SDS011;44236;48.098;11.582;2023-06-10T07:10:04;3.97;;;2.35;;
41643;SDS011;44236;48.098;11.582;2023-06-10T07:12:30;4.72;;;2.20;;
41643;SDS011;44236;48.098;11.582;2023-06-10T07:14:56;4.10;;;2.70;;
41643;SDS011;44236;48.098;11.582;2023-06-10T07:17:21;3.58;;;2.50;;
41643;SDS011;44236;48.098;11.582;2023-06-10T07:19:47;4.63;;;2.75;;
41643;SDS011;44236;48.098;11.582;2023-06-10T07:22:13;3.95;;;2.92;;
41643;SDS011;44236;48.098;11.582;2023-06-10T07:24:39;4.75;;;2.72;;
41643;SDS011;44236;48.098;11.582;2023-06-10T07:27:05;3.70;;;2.30;;
41643;SDS011;44236;48.098;11.582;2023-06-10T07:29:32;3.85;;;2.30;;
41643;SDS011;44236;48.098;11.582;2023-06-10T07:31:57;4.25;;;2.75;;
41643;SDS011;44236;48.098;11.582;2023-06-10T07:34:23;4.15;;;2.95;;
41643;SDS011;44236;48.098;11.582;2023-06-10T07:36:49;3.65;;;2.47;;
41643;SDS011;44236;48.098;11.582;2023-06-10T07:39:14;4.20;;;2.85;;
41643;SDS011;44236;48.098;11.582;2023-06-10T07:41:40;4.10;;;2.70;;
41643;SDS011;44236;48.098;11.582;2023-06-10T07:44:06;3.50;;;2.55;;
41643;SDS011;44236;48.098;11.582;2023-06-10T07:46:31;4.38;;;2.60;;
41643;SDS011;44236;48.098;11.582;2023-06-10T07:48:57;3.92;;;2.70;;
41643;SDS011;44236;48.098;11.582;2023-06-10T07:51:23;4.07;;;2.58;;
41643;SDS011;44236;48.098;11.582;2023-06-10T07:53:48;4.90;;;3.15;;
41643;SDS011;44236;48.098;11.582;2023-06-10T07:56:14;3.85;;;2.63;;
41643;SDS011;44236;48.098;11.582;2023-06-10T07:58:39;3.72;;;2.47;;
41643;SDS011;44236;48.098;11.582;2023-06-10T08:01:05;4.28;;;2.80;;
41643;SDS011;44236;48.098;11.582;2023-06-10T08:03:31;3.78;;;2.63;;
41643;SDS011;44236;48.098;11.582;2023-06-10T08:05:56;3.30;;;2.40;;
41643;SDS011;44236;48.098;11.582;2023-06-10T08:08:22;3.53;;;2.38;;
41643;SDS011;44236;48.098;11.582;2023-06-10T08:10:47;4.35;;;2.92;;
41643;SDS011;44236;48.098;11.582;2023-06-10T08:13:14;3.42;;;2.25;;
41643;SDS011;44236;48.098;11.582;2023-06-10T08:15:40;3.70;;;2.42;;
41643;SDS011;44236;48.098;11.582;2023-06-10T08:18:05;3.53;;;2.53;;
41643;SDS011;44236;48.098;11.582;2023-06-10T08:20:31;3.90;;;2.53;;
41643;SDS011;44236;48.098;11.582;2023-06-10T08:22:57;4.63;;;2.72;;
41643;SDS011;44236;48.098;11.582;2023-06-10T08:25:23;4.95;;;2.88;;
41643;SDS011;44236;48.098;11.582;2023-06-10T08:27:48;3.97;;;2.35;;
41643;SDS011;44236;48.098;11.582;2023-06-10T08:30:15;3.67;;;2.45;;
41643;SDS011;44236;48.098;11.582;2023-06-10T08:32:41;3.47;;;2.47;;
41643;SDS011;44236;48.098;11.582;2023-06-10T08:35:07;3.83;;;2.47;;
41643;SDS011;44236;48.098;11.582;2023-06-10T08:37:33;4.05;;;2.45;;
41643;SDS011;44236;48.098;11.582;2023-06-10T08:39:58;3.80;;;2.65;;
41643;SDS011;44236;48.098;11.582;2023-06-10T08:42:25;3.97;;;2.65;;
41643;SDS011;44236;48.098;11.582;2023-06-10T08:45:01;4.25;;;3.05;;
41643;SDS011;44236;48.098;11.582;2023-06-10T08:47:28;4.55;;;2.80;;
41643;SDS011;44236;48.098;11.582;2023-06-10T08:49:56;4.30;;;2.95;;
41643;SDS011;44236;48.098;11.582;2023-06-10T08:52:28;3.95;;;2.30;;
41643;SDS011;44236;48.098;11.582;2023-06-10T08:55:00;3.88;;;2.60;;
41643;SDS011;44236;48.098;11.582;2023-06-10T08:57:33;3.50;;;2.58;;
41643;SDS011;44236;48.098;11.582;2023-06-10T09:00:00;3.97;;;2.30;;
41643;SDS011;44236;48.098;11.582;2023-06-10T09:02:27;4.32;;;2.70;;
41643;SDS011;44236;48.098;11.582;2023-06-10T09:04:53;4.38;;;2.90;;
41643;SDS011;44236;48.098;11.582;2023-06-10T09:07:21;3.75;;;2.40;;
41643;SDS011;44236;48.098;11.582;2023-06-10T09:09:48;3.85;;;2.70;;
41643;SDS011;44236;48.098;11.582;2023-06-10T09:12:14;3.85;;;2.88;;
41643;SDS011;44236;48.098;11.582;2023-06-10T09:14:41;4.05;;;2.70;;
41643;SDS011;44236;48.098;11.582;2023-06-10T09:17:07;4.32;;;2.58;;
41643;SDS011;44236;48.098;11.582;2023-06-10T09:19:33;4.07;;;2.97;;
41643;SDS011;44236;48.098;11.582;2023-06-10T09:22:00;11.80;;;2.88;;
41643;SDS011;44236;48.098;11.582;2023-06-10T09:24:26;4.15;;;2.83;;
41643;SDS011;44236;48.098;11.582;2023-06-10T09:27:04;3.75;;;2.53;;
41643;SDS011;44236;48.098;11.582;2023-06-10T09:29:43;3.88;;;2.60;;
41643;SDS011;44236;48.098;11.582;2023-06-10T09:32:18;3.63;;;2.67;;
41643;SDS011;44236;48.098;11.582;2023-06-10T09:34:44;5.63;;;2.75;;
41643;SDS011;44236;48.098;11.582;2023-06-10T09:37:11;4.35;;;2.53;;
41643;SDS011;44236;48.098;11.582;2023-06-10T09:39:38;3.80;;;2.80;;
41643;SDS011;44236;48.098;11.582;2023-06-10T09:42:17;3.90;;;2.47;;
41643;SDS011;44236;48.098;11.582;2023-06-10T09:44:52;3.80;;;2.70;;
41643;SDS011;44236;48.098;11.582;2023-06-10T09:47:21;4.70;;;2.90;;
41643;SDS011;44236;48.098;11.582;2023-06-10T09:49:48;4.15;;;2.55;;
41643;SDS011;44236;48.098;11.582;2023-06-10T09:52:14;4.25;;;2.92;;
41643;SDS011;44236;48.098;11.582;2023-06-10T09:54:47;3.70;;;2.15;;
41643;SDS011;44236;48.098;11.582;2023-06-10T09:57:13;3.92;;;2.50;;
41643;SDS011;44236;48.098;11.582;2023-06-10T09:59:39;3.60;;;2.42;;
41643;SDS011;44236;48.098;11.582;2023-06-10T10:02:06;3.85;;;2.47;;
41643;SDS011;44236;48.098;11.582;2023-06-10T10:04:31;3.78;;;2.60;;
41643;SDS011;44236;48.098;11.582;2023-06-10T10:07:00;3.72;;;2.75;;
41643;SDS011;44236;48.098;11.582;2023-06-10T10:09:26;3.80;;;2.80;;
41643;SDS011;44236;48.098;11.582;2023-06-10T10:11:52;4.07;;;2.80;;
41643;SDS011;44236;48.098;11.582;2023-06-10T10:14:20;3.85;;;2.42;;
41643;SDS011;44236;48.098;11.582;2023-06-10T10:16:47;4.15;;;2.53;;
41643;SDS011;44236;48.098;11.582;2023-06-10T10:19:16;4.00;;;2.92;;
41643;SDS011;44236;48.098;11.582;2023-06-10T10:22:01;3.88;;;2.38;;
41643;SDS011;44236;48.098;11.582;2023-06-10T10:27:01;3.67;;;2.47;;
41643;SDS011;44236;48.098;11.582;2023-06-10T10:29:39;3.95;;;2.35;;
41643;SDS011;44236;48.098;11.582;2023-06-10T10:32:06;4.10;;;2.85;;
41643;SDS011;44236;48.098;11.582;2023-06-10T10:37:08;4.28;;;2.65;;
41643;SDS011;44236;48.098;11.582;2023-06-10T10:39:34;4.28;;;2.33;;
41643;SDS011;44236;48.098;11.582;2023-06-10T10:42:01;3.35;;;2.40;;
41643;SDS011;44236;48.098;11.582;2023-06-10T10:44:28;4.03;;;2.50;;
41643;SDS011;44236;48.098;11.582;2023-06-10T10:46:55;3.40;;;2.35;;
41643;SDS011;44236;48.098;11.582;2023-06-10T10:49:22;4.72;;;2.70;;
41643;SDS011;44236;48.098;11.582;2023-06-10T10:52:00;3.70;;;2.53;;
41643;SDS011;44236;48.098;11.582;2023-06-10T10:54:29;3.85;;;2.58;;
41643;SDS011;44236;48.098;11.582;2023-06-10T10:59:53;4.63;;;2.67;;
41643;SDS011;44236;48.098;11.582;2023-06-10T11:02:37;3.80;;;2.55;;
41643;SDS011;44236;48.098;11.582;2023-06-10T11:05:08;3.58;;;2.67;;
41643;SDS011;44236;48.098;11.582;2023-06-10T11:07:38;4.28;;;2.60;;
41643;SDS011;44236;48.098;11.582;2023-06-10T11:10:08;3.92;;;2.50;;
41643;SDS011;44236;48.098;11.582;2023-06-10T11:12:53;3.78;;;2.47;;
41643;SDS011;44236;48.098;11.582;2023-06-10T11:15:20;4.80;;;2.75;;
41643;SDS011;44236;48.098;11.582;2023-06-10T11:28:39;3.65;;;2.70;;
41643;SDS011;44236;48.098;11.582;2023-06-10T11:31:24;3.38;;;2.30;;
41643;SDS011;44236;48.098;11.582;2023-06-10T11:33:54;3.60;;;2.38;;
41643;SDS011;44236;48.098;11.582;2023-06-10T11:36:21;3.88;;;2.53;;
41643;SDS011;44236;48.098;11.582;2023-06-10T11:38:47;4.68;;;2.58;;
41643;SDS011;44236;48.098;11.582;2023-06-10T11:41:14;4.88;;;2.60;;
41643;SDS011;44236;48.098;11.582;2023-06-10T11:43:42;3.83;;;2.30;;
41643;SDS011;44236;48.098;11.582;2023-06-10T11:46:09;5.57;;;2.40;;
41643;SDS011;44236;48.098;11.582;2023-06-10T11:48:35;6.25;;;2.63;;
41643;SDS011;44236;48.098;11.582;2023-06-10T11:51:00;4.20;;;2.55;;
41643;SDS011;44236;48.098;11.582;2023-06-10T11:53:30;2.92;;;2.08;;
41643;SDS011;44236;48.098;11.582;2023-06-10T11:55:56;3.33;;;2.33;;
41643;SDS011;44236;48.098;11.582;2023-06-10T11:58:21;3.47;;;2.30;;
41643;SDS011;44236;48.098;11.582;2023-06-10T12:00:54;2.80;;;1.83;;
41643;SDS011;44236;48.098;11.582;2023-06-10T12:03:23;3.80;;;2.38;;
41643;SDS011;44236;48.098;11.582;2023-06-10T12:06:00;4.32;;;2.60;;
41643;SDS011;44236;48.098;11.582;2023-06-10T12:08:27;4.28;;;2.60;;
41643;SDS011;44236;48.098;11.582;2023-06-10T12:10:54;3.50;;;2.08;;
41643;SDS011;44236;48.098;11.582;2023-06-10T12:13:20;4.25;;;2.83;;
41643;SDS011;44236;48.098;11.582;2023-06-10T12:15:46;3.35;;;2.58;;
41643;SDS011;44236;48.098;11.582;2023-06-10T12:18:19;3.50;;;2.22;;
41643;SDS011;44236;48.098;11.582;2023-06-10T12:20:46;3.85;;;2.50;;
41643;SDS011;44236;48.098;11.582;2023-06-10T12:23:13;3.75;;;2.50;;
41643;SDS011;44236;48.098;11.582;2023-06-10T12:25:43;4.28;;;2.70;;
41643;SDS011;44236;48.098;11.582;2023-06-10T12:28:16;4.50;;;2.65;;
41643;SDS011;44236;48.098;11.582;2023-06-10T12:30:45;3.53;;;2.40;;
41643;SDS011;44236;48.098;11.582;2023-06-10T12:33:21;3.30;;;2.05;;
41643;SDS011;44236;48.098;11.582;2023-06-10T12:35:50;4.70;;;2.60;;
41643;SDS011;44236;48.098;11.582;2023-06-10T12:38:23;3.28;;;2.35;;
41643;SDS011;44236;48.098;11.582;2023-06-10T12:40:52;3.17;;;2.10;;
41643;SDS011;44236;48.098;11.582;2023-06-10T12:43:20;3.60;;;2.35;;
41643;SDS011;44236;48.098;11.582;2023-06-10T12:45:47;3.80;;;2.10;;
41643;SDS011;44236;48.098;11.582;2023-06-10T12:48:19;3.63;;;2.22;;
41643;SDS011;44236;48.098;11.582;2023-06-10T12:50:50;2.60;;;1.90;;
41643;SDS011;44236;48.098;11.582;2023-06-10T12:53:17;3.55;;;2.40;;
41643;SDS011;44236;48.098;11.582;2023-06-10T12:55:44;3.28;;;2.05;;
41643;SDS011;44236;48.098;11.582;2023-06-10T12:58:10;4.25;;;2.60;;
41643;SDS011;44236;48.098;11.582;2023-06-10T13:00:36;3.53;;;2.30;;
41643;SDS011;44236;48.098;11.582;2023-06-10T13:03:03;3.38;;;2.22;;
41643;SDS011;44236;48.098;11.582;2023-06-10T13:05:30;2.95;;;2.10;;
41643;SDS011;44236;48.098;11.582;2023-06-10T13:07:57;3.58;;;2.22;;
41643;SDS011;44236;48.098;11.582;2023-06-10T13:10:23;2.58;;;1.80;;
41643;SDS011;44236;48.098;11.582;2023-06-10T13:12:49;3.95;;;2.03;;
41643;SDS011;44236;48.098;11.582;2023-06-10T13:15:15;3.15;;;1.80;;
41643;SDS011;44236;48.098;11.582;2023-06-10T13:17:42;3.38;;;1.88;;
41643;SDS011;44236;48.098;11.582;2023-06-10T13:20:15;3.10;;;2.05;;
41643;SDS011;44236;48.098;11.582;2023-06-10T13:22:41;3.90;;;1.90;;
41643;SDS011;44236;48.098;11.582;2023-06-10T13:25:07;6.43;;;2.38;;
41643;SDS011;44236;48.098;11.582;2023-06-10T13:27:33;3.90;;;2.30;;
41643;SDS011;44236;48.098;11.582;2023-06-10T13:30:00;3.35;;;2.22;;
41643;SDS011;44236;48.098;11.582;2023-06-10T13:32:25;2.67;;;1.67;;
41643;SDS011;44236;48.098;11.582;2023-06-10T13:34:51;3.40;;;2.22;;
41643;SDS011;44236;48.098;11.582;2023-06-10T13:37:18;3.42;;;2.40;;
41643;SDS011;44236;48.098;11.582;2023-06-10T13:39:44;3.83;;;2.40;;
41643;SDS011;44236;48.098;11.582;2023-06-10T13:42:13;4.05;;;2.55;;
41643;SDS011;44236;48.098;11.582;2023-06-10T13:44:39;3.42;;;2.15;;
41643;SDS011;44236;48.098;11.582;2023-06-10T13:47:05;3.90;;;2.42;;
41643;SDS011;44236;48.098;11.582;2023-06-10T13:49:31;4.68;;;1.90;;
41643;SDS011;44236;48.098;11.582;2023-06-10T13:51:57;3.47;;;2.30;;
41643;SDS011;44236;48.098;11.582;2023-06-10T13:54:23;3.22;;;2.20;;
41643;SDS011;44236;48.098;11.582;2023-06-10T13:56:48;2.95;;;2.00;;
41643;SDS011;44236;48.098;11.582;2023-06-10T13:59:14;4.80;;;2.17;;
41643;SDS011;44236;48.098;11.582;2023-06-10T14:01:40;3.75;;;2.60;;
41643;SDS011;44236;48.098;11.582;2023-06-10T14:04:06;2.53;;;1.77;;
41643;SDS011;44236;48.098;11.582;2023-06-10T14:06:32;2.75;;;1.70;;
41643;SDS011;44236;48.098;11.582;2023-06-10T14:08:58;3.08;;;1.80;;
41643;SDS011;44236;48.098;11.582;2023-06-10T14:17:31;3.13;;;1.90;;
41643;SDS011;44236;48.098;11.582;2023-06-10T14:19:57;3.38;;;2.28;;
41643;SDS011;44236;48.098;11.582;2023-06-10T14:22:22;3.33;;;1.55;;
41643;SDS011;44236;48.098;11.582;2023-06-10T14:24:48;3.63;;;2.15;;
41643;SDS011;44236;48.098;11.582;2023-06-10T14:27:14;2.55;;;1.80;;
41643;SDS011;44236;48.098;11.582;2023-06-10T14:29:40;3.17;;;2.10;;
41643;SDS011;44236;48.098;11.582;2023-06-10T14:32:06;3.42;;;1.88;;
41643;SDS011;44236;48.098;11.582;2023-06-10T14:34:31;3.13;;;2.03;;
41643;SDS011;44236;48.098;11.582;2023-06-10T14:36:59;3.17;;;1.80;;
41643;SDS011;44236;48.098;11.582;2023-06-10T14:39:25;2.55;;;1.65;;
41643;SDS011;44236;48.098;11.582;2023-06-10T14:41:50;2.85;;;1.80;;
41643;SDS011;44236;48.098;11.582;2023-06-10T14:44:17;3.47;;;1.88;;
41643;SDS011;44236;48.098;11.582;2023-06-10T14:46:43;2.85;;;1.80;;
41643;SDS011;44236;48.098;11.582;2023-06-10T14:49:09;2.83;;;1.65;;
41643;SDS011;44236;48.098;11.582;2023-06-10T14:51:34;2.92;;;1.70;;
41643;SDS011;44236;48.098;11.582;2023-06-10T14:54:01;2.70;;;1.90;;
41643;SDS011;44236;48.098;11.582;2023-06-10T14:56:26;3.20;;;2.10;;
41643;SDS011;44236;48.098;11.582;2023-06-10T14:58:52;3.17;;;1.77;;
41643;SDS011;44236;48.098;11.582;2023-06-10T15:01:17;3.65;;;2.38;;
41643;SDS011;44236;48.098;11.582;2023-06-10T15:03:43;3.05;;;1.85;;
41643;SDS011;44236;48.098;11.582;2023-06-10T15:06:09;3.10;;;1.88;;